Time;durP1;ratioP1;P1;durP2;ratioP2;P2;SDS_P1;SDS_P2;PMS_P1;PMS_P2;Temp;Humidity;BMP_temperature;BMP_pressure;BME280_temperature;BME280_humidity;BME280_pressure;Samples;Min_cycle;Max_cycle;Signal;HPM_P1;HPM_P2
2022/09/30 00:01:31;;;;;;;9.38;5.82;;;;;;;8.36;83.75;97290.50;4969560;28;20054;-89
2022/09/30 00:04:00;;;;;;;9.27;6.03;;;;;;;8.23;83.68;97292.13;4973936;28;20386;-89
2022/09/30 00:06:28;;;;;;;8.18;6.95;;;;;;;8.15;84.26;97288.91;4968776;28;20047;-89
2022/09/30 00:08:56;;;;;;;9.20;6.18;;;;;;;8.05;85.17;97284.09;4973276;28;20125;-90
2022/09/30 00:11:29;;;;;;;9.75;6.60;;;;;;;8.22;85.28;97290.50;4973616;28;20046;-89
2022/09/30 00:13:57;;;;;;;10.45;6.18;;;;;;;8.22;85.24;97294.94;4956410;28;20090;-89
2022/09/30 00:16:27;;;;;;;8.10;6.00;;;;;;;8.33;85.33;97297.69;4973174;28;20105;-89
2022/09/30 00:18:56;;;;;;;9.82;6.90;;;;;;;8.33;84.34;97287.25;4970306;28;20051;-89
2022/09/30 00:21:24;;;;;;;8.70;6.53;;;;;;;8.36;84.45;97273.03;4973712;28;20046;-89
2022/09/30 00:23:51;;;;;;;9.38;6.43;;;;;;;8.38;83.48;97281.44;4969640;28;20051;-89
2022/09/30 00:26:20;;;;;;;12.82;7.70;;;;;;;8.35;83.15;97278.44;4973347;28;20035;-88
2022/09/30 00:28:54;;;;;;;10.40;7.80;;;;;;;8.27;83.51;97276.81;4972120;28;20137;-88
2022/09/30 00:31:25;;;;;;;10.20;6.97;;;;;;;8.09;83.47;97280.06;4973322;28;20046;-88
2022/09/30 00:34:07;;;;;;;10.80;7.25;;;;;;;7.94;83.84;97277.69;4973245;28;20051;-88
2022/09/30 00:36:38;;;;;;;10.02;7.40;;;;;;;7.63;84.65;97287.94;4965489;28;20591;-88
2022/09/30 00:39:07;;;;;;;13.73;7.47;;;;;;;7.34;85.98;97296.94;4972197;28;20049;-87
2022/09/30 00:41:34;;;;;;;11.95;7.43;;;;;;;7.36;86.66;97294.94;4955008;28;20051;-88
2022/09/30 00:44:01;;;;;;;9.75;6.93;;;;;;;7.39;86.33;97289.31;4974600;28;20431;-88
2022/09/30 00:46:36;;;;;;;14.60;7.03;;;;;;;7.31;86.17;97292.09;4973252;28;20043;-88
2022/09/30 00:49:19;;;;;;;15.93;6.93;;;;;;;7.17;86.72;97301.72;4973510;28;20046;-87
2022/09/30 00:51:55;;;;;;;24.98;8.07;;;;;;;7.04;87.74;97297.28;4969517;28;20068;-88
2022/09/30 00:54:30;;;;;;;13.85;7.10;;;;;;;7.12;88.15;97291.88;4972963;28;20049;-89
2022/09/30 00:57:03;;;;;;;8.57;6.43;;;;;;;7.31;87.83;97300.72;4963881;28;20046;-88
2022/09/30 00:59:36;;;;;;;8.70;6.15;;;;;;;7.51;86.46;97300.78;4958548;28;20474;-88
2022/09/30 01:02:04;;;;;;;10.98;6.18;;;;;;;7.58;85.42;97300.78;4973849;28;20057;-89
2022/09/30 01:04:34;;;;;;;11.43;6.13;;;;;;;7.58;83.96;97306.81;4973161;28;20067;-88
2022/09/30 01:07:04;;;;;;;8.98;6.43;;;;;;;7.42;83.82;97291.53;4963689;28;20065;-89
2022/09/30 01:09:35;;;;;;;15.60;5.90;;;;;;;7.32;84.41;97315.41;4954626;29;20043;-88
2022/09/30 01:12:16;;;;;;;8.95;5.80;;;;;;;7.38;85.09;97313.81;4953898;29;20503;-88
2022/09/30 01:14:46;;;;;;;6.15;5.45;;;;;;;7.36;84.47;97295.72;4936174;29;20049;-88
2022/09/30 01:17:45;;;;;;;8.00;5.85;;;;;;;7.37;84.36;97304.34;4952668;29;20051;-88
2022/09/30 01:20:37;;;;;;;7.07;5.65;;;;;;;7.44;84.23;97305.19;4953040;29;20043;-88
2022/09/30 01:23:25;;;;;;;6.93;5.45;;;;;;;7.52;83.87;97312.81;4952754;29;20051;-88
2022/09/30 01:26:49;;;;;;;6.40;5.18;;;;;;;7.43;82.66;97308.78;4949222;29;20138;-88
2022/09/30 01:29:37;;;;;;;8.18;5.40;;;;;;;6.93;83.82;97326.50;4952133;29;20047;-87
2022/09/30 01:32:18;;;;;;;19.02;6.18;;;;;;;6.65;85.26;97326.56;4936567;29;20145;-88
2022/09/30 01:34:50;;;;;;;14.50;5.63;;;;;;;6.70;86.64;97322.41;4934772;29;20061;-87
2022/09/30 01:38:11;;;;;;;12.68;6.15;;;;;;;6.76;86.80;97314.81;4952467;29;20755;-87
2022/09/30 01:40:44;;;;;;;6.88;5.10;;;;;;;7.04;85.45;97320.75;4948564;29;20059;-87
2022/09/30 01:43:38;;;;;;;8.90;5.85;;;;;;;6.91;84.29;97318.88;4953086;29;20051;-87
2022/09/30 01:46:29;;;;;;;8.30;5.85;;;;;;;6.66;84.66;97320.41;4947490;29;20055;-87
2022/09/30 01:48:58;;;;;;;;;;;;;;;6.63;84.92;97320.78;4953509;29;20102;-88
2022/09/30 01:51:41;;;;;;;6.75;4.78;;;;;;;6.45;84.29;97321.28;4951575;29;20393;-89
2022/09/30 01:55:04;;;;;;;6.13;4.90;;;;;;;6.54;85.27;97324.53;4952691;29;20044;-87
2022/09/30 01:57:53;;;;;;;5.47;4.90;;;;;;;6.75;85.65;97339.25;4874179;29;20045;-87
2022/09/30 02:00:20;;;;;;;6.07;5.32;;;;;;;6.81;84.64;97330.66;4875066;29;20108;-87
2022/09/30 02:03:04;;;;;;;6.10;5.32;;;;;;;6.90;84.14;97340.75;4914027;29;20052;-87
2022/09/30 02:05:52;;;;;;;6.22;5.55;;;;;;;6.90;84.06;97332.94;4953983;28;20058;-87
2022/09/30 02:08:40;;;;;;;8.70;5.35;;;;;;;6.98;83.83;97335.34;4972425;28;20050;-87
2022/09/30 02:11:22;;;;;;;8.38;6.40;;;;;;;6.93;83.36;97324.72;4971114;28;20471;-87
2022/09/30 02:14:00;;;;;;;11.57;5.25;;;;;;;6.95;83.27;97340.16;4968667;28;20058;-87
2022/09/30 02:16:42;;;;;;;7.45;5.28;;;;;;;6.98;82.96;97329.34;4972906;28;20043;-87
2022/09/30 02:19:27;;;;;;;6.22;5.03;;;;;;;6.73;80.90;97305.59;4964640;28;20045;-87
2022/09/30 02:22:05;;;;;;;6.25;4.78;;;;;;;6.75;81.83;97328.84;4961870;28;20053;-88
2022/09/30 02:24:38;;;;;;;5.10;4.60;;;;;;;6.73;81.95;97330.84;4963091;28;20047;-87
2022/09/30 02:27:14;;;;;;;5.20;4.70;;;;;;;6.64;81.33;97327.59;4938862;29;20402;-88
2022/09/30 02:29:51;;;;;;;8.43;4.70;;;;;;;6.37;82.56;97332.66;4953321;29;20534;-87
2022/09/30 02:32:26;;;;;;;5.60;4.50;;;;;;;6.36;83.62;97340.69;4969313;28;20050;-87
2022/09/30 02:35:05;;;;;;;7.47;5.07;;;;;;;6.51;84.11;97341.34;4940144;28;20074;-87
2022/09/30 02:37:44;;;;;;;6.15;4.80;;;;;;;6.63;83.83;97342.41;4968191;28;20491;-87
2022/09/30 02:40:24;;;;;;;6.55;4.72;;;;;;;6.77;83.29;97350.28;4964876;28;20043;-88
2022/09/30 02:42:51;;;;;;;16.08;5.03;;;;;;;6.63;82.15;97352.84;4958637;28;20066;-87
2022/09/30 02:45:22;;;;;;;5.75;4.57;;;;;;;6.66;83.12;97352.47;4974974;28;20047;-88
2022/09/30 02:48:10;;;;;;;11.40;4.72;;;;;;;6.70;83.52;97351.06;4974922;28;20034;-88
2022/09/30 02:51:05;;;;;;;15.82;5.40;;;;;;;6.78;84.00;97370.13;4975691;28;20054;-87
2022/09/30 02:53:58;;;;;;;6.57;4.82;;;;;;;6.77;84.01;97358.91;4969827;28;20045;-88
2022/09/30 02:56:47;;;;;;;12.90;4.90;;;;;;;6.69;83.83;97362.50;4938030;28;20050;-88
2022/09/30 02:59:14;;;;;;;11.77;4.85;;;;;;;6.66;84.00;97367.31;4975344;28;20047;-87
2022/09/30 03:01:42;;;;;;;5.65;4.50;;;;;;;6.65;83.96;97363.88;4974665;28;20079;-88
2022/09/30 03:04:14;;;;;;;12.13;4.97;;;;;;;6.71;84.55;97368.31;4969941;28;20594;-88
2022/09/30 03:06:42;;;;;;;38.65;5.20;;;;;;;6.66;84.15;97381.13;4975029;28;20059;-88
2022/09/30 03:09:09;;;;;;;16.08;4.85;;;;;;;6.64;84.47;97387.50;4970533;28;20031;-88
2022/09/30 03:11:37;;;;;;;7.50;4.18;;;;;;;6.75;84.65;97388.78;4973623;28;20501;-87
2022/09/30 03:14:44;;;;;;;25.38;5.70;;;;;;;6.78;84.30;97380.56;4975043;28;20058;-88
2022/09/30 03:17:41;;;;;;;13.73;4.75;;;;;;;6.83;84.13;97375.59;4971671;28;20053;-88
2022/09/30 03:20:45;;;;;;;17.17;4.93;;;;;;;6.94;84.02;97386.28;4942171;28;20062;-88
2022/09/30 03:23:20;;;;;;;6.97;4.38;;;;;;;7.01;83.62;97386.28;4971434;28;20042;-88
2022/09/30 03:26:08;;;;;;;22.42;5.43;;;;;;;7.06;83.21;97383.13;4971742;28;20073;-87
2022/09/30 03:28:45;;;;;;;69.30;6.50;;;;;;;7.06;82.76;97388.31;4969268;28;20047;-88
2022/09/30 03:31:25;;;;;;;45.72;6.15;;;;;;;7.06;82.87;97394.34;4974060;28;20053;-88
2022/09/30 03:34:21;;;;;;;39.65;6.32;;;;;;;7.06;83.09;97399.56;4954262;28;20049;-88
2022/09/30 03:37:14;;;;;;;15.27;4.80;;;;;;;7.05;83.32;97403.16;4949251;28;20105;-88
2022/09/30 03:40:10;;;;;;;12.68;4.90;;;;;;;6.99;82.23;97403.94;4973586;28;20486;-88
2022/09/30 03:42:47;;;;;;;34.28;5.22;;;;;;;6.92;82.30;97397.91;4965120;28;20057;-88
2022/09/30 03:45:30;;;;;;;26.52;4.82;;;;;;;6.78;82.26;97410.06;4968165;28;20046;-88
2022/09/30 03:48:04;;;;;;;5.70;4.63;;;;;;;6.81;82.49;97419.28;4973060;28;20053;-88
2022/09/30 03:50:35;;;;;;;20.88;4.75;;;;;;;6.81;81.87;97416.69;4973227;28;20047;-88
2022/09/30 03:53:09;;;;;;;13.55;4.72;;;;;;;6.71;81.69;97419.63;4953040;28;20450;-89
2022/09/30 03:55:48;;;;;;;22.67;5.07;;;;;;;6.60;81.99;97423.59;4943099;28;20047;-88
2022/09/30 03:58:18;;;;;;;10.85;4.55;;;;;;;6.59;82.73;97419.34;4974044;28;20031;-88
2022/09/30 04:00:49;;;;;;;12.35;4.65;;;;;;;6.68;83.38;97423.44;4971823;28;20054;-88
2022/09/30 04:03:19;;;;;;;19.40;5.30;;;;;;;6.70;83.08;97424.03;4971812;28;20078;-88
2022/09/30 04:05:47;;;;;;;22.17;4.45;;;;;;;6.67;82.57;97421.81;4971487;28;20058;-88
2022/09/30 04:08:15;;;;;;;16.38;5.35;;;;;;;6.60;82.30;97428.00;4972996;28;20055;-88
2022/09/30 04:10:43;;;;;;;28.25;5.28;;;;;;;6.55;82.22;97418.13;4971961;28;20061;-88
2022/09/30 04:13:11;;;;;;;11.52;5.13;;;;;;;6.60;83.16;97409.75;4971342;28;20047;-88
2022/09/30 04:15:39;;;;;;;24.00;5.35;;;;;;;6.68;83.61;97417.41;4973420;28;20047;-88
2022/09/30 04:18:06;;;;;;;32.28;5.80;;;;;;;6.81;82.96;97424.50;4973403;28;20094;-88
2022/09/30 04:20:33;;;;;;;36.38;5.82;;;;;;;6.78;82.83;97430.09;4974310;28;20082;-88
2022/09/30 04:23:01;;;;;;;18.48;5.25;;;;;;;6.80;83.10;97428.13;4972529;28;20051;-88
2022/09/30 04:25:28;;;;;;;18.80;5.30;;;;;;;6.62;82.69;97424.19;4970799;28;20050;-89
2022/09/30 04:27:55;;;;;;;15.25;5.28;;;;;;;6.63;84.24;97436.22;4972603;28;20379;-88
2022/09/30 04:30:22;;;;;;;9.45;4.90;;;;;;;6.65;83.47;97433.41;4972474;28;20459;-88
2022/09/30 04:32:52;;;;;;;16.73;5.07;;;;;;;6.52;83.01;97444.56;4972713;28;20050;-88
2022/09/30 04:35:19;;;;;;;18.55;5.43;;;;;;;6.45;84.01;97448.91;4966267;28;20052;-88
2022/09/30 04:37:46;;;;;;;17.23;5.03;;;;;;;6.36;83.41;97450.06;4974235;28;20034;-88
2022/09/30 04:40:27;;;;;;;9.48;4.13;;;;;;;6.39;84.05;97439.25;4972690;28;20547;-88
2022/09/30 04:42:56;;;;;;;9.35;4.18;;;;;;;6.58;84.69;97454.22;4956647;28;20047;-88
2022/09/30 04:45:23;;;;;;;10.98;4.35;;;;;;;6.45;83.35;97464.53;4943660;28;20061;-88
2022/09/30 04:47:50;;;;;;;18.25;4.95;;;;;;;6.25;84.20;97455.78;4971813;28;20502;-88
2022/09/30 04:50:18;;;;;;;19.05;5.75;;;;;;;6.16;85.06;97466.31;4956128;28;20134;-88
2022/09/30 04:52:44;;;;;;;28.05;5.53;;;;;;;6.06;85.34;97460.63;4951649;28;20047;-88
2022/09/30 04:55:12;;;;;;;20.50;5.20;;;;;;;5.98;85.33;97458.13;4975930;28;20122;-89
2022/09/30 04:57:44;;;;;;;19.50;5.45;;;;;;;5.96;85.89;97464.53;4971840;28;20054;-89
2022/09/30 05:00:11;;;;;;;17.45;5.28;;;;;;;5.90;86.10;97460.81;4955717;28;20094;-89
2022/09/30 05:02:37;;;;;;;7.32;5.07;;;;;;;6.10;87.21;97467.06;4972524;28;20126;-89
2022/09/30 05:05:05;;;;;;;5.93;4.82;;;;;;;6.25;87.91;97468.78;4970127;28;20053;-89
2022/09/30 05:07:31;;;;;;;26.92;5.63;;;;;;;6.36;87.07;97458.69;4970590;28;20065;-89
2022/09/30 05:09:58;;;;;;;10.55;4.78;;;;;;;6.51;86.68;97469.00;4972394;28;20050;-89
2022/09/30 05:12:26;;;;;;;36.35;6.07;;;;;;;6.60;86.12;97478.31;4952741;28;20667;-88
2022/09/30 05:14:52;;;;;;;33.78;5.43;;;;;;;6.56;85.32;97471.84;4971767;28;20439;-89
2022/09/30 05:17:19;;;;;;;48.42;6.60;;;;;;;6.69;85.60;97477.16;4966250;28;20059;-89
2022/09/30 05:19:45;;;;;;;10.45;4.90;;;;;;;6.76;85.16;97468.56;4970891;28;20055;-88
2022/09/30 05:22:13;;;;;;;37.17;6.15;;;;;;;6.66;84.88;97467.13;4971521;28;20050;-88
2022/09/30 05:24:40;;;;;;;44.38;6.28;;;;;;;6.53;84.97;97479.22;4970882;28;20491;-88
2022/09/30 05:27:07;;;;;;;15.05;5.47;;;;;;;6.65;86.19;97482.94;4970564;28;20038;-88
2022/09/30 05:29:34;;;;;;;17.00;5.70;;;;;;;6.66;85.95;97477.53;4971409;28;20046;-89
2022/09/30 05:32:00;;;;;;;32.05;6.25;;;;;;;6.78;86.07;97477.84;4971099;28;20050;-88
2022/09/30 05:34:27;;;;;;;22.15;6.00;;;;;;;6.88;85.80;97480.88;4971414;28;20073;-88
2022/09/30 05:36:54;;;;;;;16.13;5.57;;;;;;;6.87;85.12;97484.50;4971352;28;20106;-88
2022/09/30 05:39:20;;;;;;;17.70;6.15;;;;;;;6.96;85.76;97493.00;4969832;28;20049;-88
2022/09/30 05:41:47;;;;;;;20.88;6.07;;;;;;;6.97;84.42;97494.59;4971592;28;20493;-88
2022/09/30 05:44:13;;;;;;;24.70;6.07;;;;;;;6.84;83.73;97499.72;4969325;28;20046;-88
2022/09/30 05:46:42;;;;;;;51.70;7.43;;;;;;;6.77;84.91;97509.28;4954085;28;20074;-88
2022/09/30 05:49:09;;;;;;;11.65;5.93;;;;;;;6.86;86.16;97510.75;4969046;28;20057;-88
2022/09/30 05:51:36;;;;;;;29.88;7.05;;;;;;;6.86;84.98;97495.91;4966141;28;20047;-89
2022/09/30 05:54:02;;;;;;;64.55;7.15;;;;;;;6.86;84.60;97508.16;4970177;28;20050;-88
2022/09/30 05:56:29;;;;;;;13.80;5.05;;;;;;;6.98;85.02;97509.22;4953991;28;20047;-88
2022/09/30 05:58:56;;;;;;;9.05;5.38;;;;;;;7.02;85.08;97513.09;4964585;28;20133;-88
2022/09/30 06:01:22;;;;;;;71.20;8.38;;;;;;;6.94;84.30;97515.81;4969390;28;20046;-89
2022/09/30 06:03:49;;;;;;;58.75;8.40;;;;;;;6.69;84.61;97518.84;4971515;28;20047;-88
2022/09/30 06:06:17;;;;;;;21.52;6.65;;;;;;;6.69;86.02;97524.06;4955239;28;20487;-88
2022/09/30 06:08:45;;;;;;;18.63;6.72;;;;;;;6.86;86.75;97534.22;4969822;28;20561;-87
2022/09/30 06:11:16;;;;;;;9.77;6.32;;;;;;;7.02;85.69;97528.72;4970827;28;20047;-88
2022/09/30 06:13:46;;;;;;;35.67;7.32;;;;;;;7.10;84.00;97539.00;4972124;28;20045;-89
2022/09/30 06:16:13;;;;;;;22.90;6.05;;;;;;;7.20;84.64;97543.88;4974681;28;20057;-88
2022/09/30 06:18:41;;;;;;;11.88;5.90;;;;;;;7.29;84.18;97544.53;4975331;28;20067;-87
2022/09/30 06:21:12;;;;;;;12.43;6.38;;;;;;;7.37;84.53;97546.97;4974075;28;20065;-88
2022/09/30 06:23:39;;;;;;;16.20;6.47;;;;;;;7.39;84.40;97551.00;4956643;28;20046;-87
2022/09/30 06:26:08;;;;;;;8.77;6.05;;;;;;;7.42;84.36;97555.84;4974005;28;20047;-88
2022/09/30 06:28:37;;;;;;;10.43;6.28;;;;;;;7.33;83.22;97551.78;4974276;28;20047;-88
2022/09/30 06:31:06;;;;;;;14.65;6.10;;;;;;;7.40;84.23;97547.41;4974367;28;20438;-89
2022/09/30 06:33:33;;;;;;;13.30;6.78;;;;;;;7.46;82.91;97557.06;4966301;28;20071;-89
2022/09/30 06:36:03;;;;;;;17.15;6.55;;;;;;;7.51;82.74;97553.88;4959005;28;20054;-89
2022/09/30 06:38:33;;;;;;;15.65;6.18;;;;;;;7.48;82.52;97559.47;4972356;28;20486;-88
2022/09/30 06:40:59;;;;;;;12.93;6.10;;;;;;;7.62;82.98;97561.19;4975242;28;20051;-88
2022/09/30 06:43:27;;;;;;;7.20;5.88;;;;;;;7.66;83.02;97564.19;4974684;28;20072;-88
2022/09/30 06:45:54;;;;;;;15.18;6.13;;;;;;;7.71;82.22;97575.66;4975336;28;20047;-87
2022/09/30 06:48:37;;;;;;;22.85;6.82;;;;;;;7.79;82.09;97579.91;4972345;28;20035;-88
2022/09/30 06:51:06;;;;;;;9.70;6.03;;;;;;;7.90;82.10;97587.19;4975121;28;20138;-88
2022/09/30 06:53:34;;;;;;;11.73;6.18;;;;;;;7.98;82.05;97588.84;4970904;28;20047;-88
2022/09/30 06:56:00;;;;;;;22.00;7.10;;;;;;;8.11;82.30;97591.50;4956285;28;20061;-88
2022/09/30 06:58:27;;;;;;;9.85;6.38;;;;;;;8.18;81.61;97578.44;4974921;28;20491;-88
2022/09/30 07:01:04;;;;;;;13.98;6.05;;;;;;;8.25;80.34;97587.91;4974783;28;20118;-88
2022/09/30 07:03:35;;;;;;;71.07;8.40;;;;;;;8.08;79.42;97584.03;4975568;28;20043;-88
2022/09/30 07:06:05;;;;;;;9.82;6.30;;;;;;;8.03;81.40;97579.41;4949778;28;20039;-88
2022/09/30 07:08:35;;;;;;;17.27;6.93;;;;;;;8.17;81.64;97588.09;4969809;28;20066;-88
2022/09/30 07:11:13;;;;;;;12.30;7.07;;;;;;;8.09;81.08;97590.06;4949923;28;20047;-89
2022/09/30 07:13:44;;;;;;;26.27;6.95;;;;;;;8.28;81.47;97603.22;4967408;28;20090;-88
2022/09/30 07:16:18;;;;;;;30.02;7.45;;;;;;;8.23;80.55;97592.53;4972719;28;20070;-88
2022/09/30 07:18:45;;;;;;;13.82;6.40;;;;;;;8.30;81.45;97606.41;4967396;28;20034;-89
2022/09/30 07:21:14;;;;;;;7.80;6.28;;;;;;;8.26;81.66;97602.59;4973899;28;20057;-90
2022/09/30 07:23:48;;;;;;;10.30;6.82;;;;;;;8.29;82.25;97599.59;4956306;28;20073;-89
2022/09/30 07:26:19;;;;;;;7.88;5.80;;;;;;;8.35;81.03;97603.22;4967563;28;20043;-90
2022/09/30 07:28:47;;;;;;;8.30;5.43;;;;;;;8.29;80.86;97610.03;4973068;28;20054;-89
2022/09/30 07:31:22;;;;;;;11.00;6.57;;;;;;;8.13;81.28;97615.59;4972439;28;20046;-89
2022/09/30 07:34:06;;;;;;;59.65;7.50;;;;;;;7.81;80.56;97619.69;4973396;28;20042;-88
2022/09/30 07:36:38;;;;;;;21.35;7.15;;;;;;;7.94;82.63;97613.72;4972506;28;20047;-88
2022/09/30 07:39:09;;;;;;;7.32;5.40;;;;;;;8.28;82.43;97618.88;4954115;28;20610;-88
2022/09/30 07:41:38;;;;;;;14.13;5.40;;;;;;;8.42;80.90;97626.78;4958247;28;20057;-89
2022/09/30 07:44:13;;;;;;;35.10;6.57;;;;;;;8.39;80.23;97625.34;4973561;28;20046;-89
2022/09/30 07:46:41;;;;;;;12.07;5.78;;;;;;;8.49;80.29;97627.59;4972429;28;20105;-89
2022/09/30 07:49:24;;;;;;;10.27;5.53;;;;;;;8.45;79.22;97626.38;4972342;28;20050;-89
2022/09/30 07:51:57;;;;;;;8.48;5.55;;;;;;;8.40;80.55;97631.41;4969431;28;20038;-89
2022/09/30 07:54:31;;;;;;;7.82;5.78;;;;;;;8.56;80.85;97649.34;4974217;28;20082;-89
2022/09/30 07:57:01;;;;;;;7.65;6.03;;;;;;;8.80;81.04;97654.00;4972853;28;20051;-89
2022/09/30 07:59:39;;;;;;;8.48;6.25;;;;;;;9.03;80.59;97647.59;4971745;28;20053;-89
2022/09/30 08:02:14;;;;;;;9.60;6.60;;;;;;;9.25;80.00;97645.59;4972993;28;20051;-89
2022/09/30 08:04:41;;;;;;;9.93;6.03;;;;;;;9.45;79.35;97649.00;4972608;28;20293;-89
2022/09/30 08:07:12;;;;;;;8.98;6.32;;;;;;;9.45;78.43;97656.06;4972281;28;21727;-89
2022/09/30 08:09:39;;;;;;;10.02;6.80;;;;;;;9.46;79.34;97655.03;4972063;28;20459;-89
2022/09/30 08:12:06;;;;;;;8.70;6.43;;;;;;;9.53;79.75;97647.97;4969087;28;20054;-89
2022/09/30 08:14:33;;;;;;;7.97;6.50;;;;;;;9.59;79.31;97647.16;4972733;28;20042;-89
2022/09/30 08:17:00;;;;;;;19.23;6.93;;;;;;;9.62;78.19;97657.25;4972708;28;20499;-89
2022/09/30 08:19:29;;;;;;;8.98;6.03;;;;;;;9.62;79.29;97662.47;4972845;28;20498;-89
2022/09/30 08:21:57;;;;;;;15.43;6.95;;;;;;;9.58;79.05;97671.75;4967837;28;20345;-89
2022/09/30 08:24:25;;;;;;;8.38;6.93;;;;;;;9.69;79.80;97662.47;4953042;29;20167;-89
2022/09/30 08:26:54;;;;;;;9.45;7.10;;;;;;;9.63;79.03;97646.56;4952771;29;20086;-89
2022/09/30 08:29:21;;;;;;;7.88;6.70;;;;;;;9.77;78.97;97657.00;4946987;28;20050;-89
2022/09/30 08:32:08;;;;;;;9.38;7.65;;;;;;;9.65;79.72;97659.44;4970732;28;20066;-93
2022/09/30 08:34:35;;;;;;;9.15;7.05;;;;;;;9.91;79.57;97666.47;4971243;28;20447;-88
2022/09/30 08:37:03;;;;;;;10.90;7.57;;;;;;;10.00;78.57;97670.44;4969967;28;20055;-89
2022/09/30 08:39:36;;;;;;;10.77;7.10;;;;;;;10.14;76.81;97681.72;4972293;28;20046;-89
2022/09/30 08:42:36;;;;;;;9.85;7.75;;;;;;;10.19;77.38;97676.63;4969084;28;20406;-88
2022/09/30 08:45:29;;;;;;;10.32;6.88;;;;;;;10.03;77.47;97684.97;4950900;28;20763;-89
2022/09/30 08:48:31;;;;;;;11.55;7.40;;;;;;;10.04;77.87;97678.72;4936380;29;20074;-90
2022/09/30 08:51:35;;;;;;;11.50;7.80;;;;;;;10.00;77.74;97674.88;4948781;28;20064;-94
2022/09/30 08:54:14;;;;;;;9.65;7.07;;;;;;;10.01;78.03;97681.72;4973034;28;20089;-93
2022/09/30 08:56:44;;;;;;;15.75;8.43;;;;;;;9.96;77.43;97681.56;4972177;28;20557;-94
2022/09/30 08:59:22;;;;;;;9.15;7.32;;;;;;;10.02;78.08;97686.78;4973885;28;20065;-93
2022/09/30 09:02:15;;;;;;;12.85;7.97;;;;;;;9.98;78.27;97687.41;4972924;28;20097;-92
2022/09/30 09:04:46;;;;;;;8.50;6.75;;;;;;;9.99;78.83;97686.38;4943627;28;20082;-91
2022/09/30 09:07:32;;;;;;;10.37;7.40;;;;;;;10.02;79.09;97699.09;4972761;28;20046;-94
2022/09/30 09:10:54;;;;;;;33.80;8.90;;;;;;;9.71;77.89;97703.13;4970738;28;20121;-87
2022/09/30 09:13:27;;;;;;;14.05;8.30;;;;;;;9.75;78.89;97704.34;4931874;29;20422;-90
2022/09/30 09:16:13;;;;;;;9.93;7.78;;;;;;;9.82;78.98;97689.44;4965598;28;20455;-90
2022/09/30 09:19:02;;;;;;;8.90;6.97;;;;;;;9.97;79.31;97691.03;4967712;28;20044;-93
2022/09/30 09:21:58;;;;;;;10.10;7.63;;;;;;;10.23;79.12;97698.84;4953007;29;20114;-92
2022/09/30 09:24:39;;;;;;;8.82;7.57;;;;;;;10.07;77.76;97699.25;4970505;28;20041;-95
2022/09/30 09:27:17;;;;;;;;;;;;;;;10.04;78.94;97704.91;4969392;28;21115;-90
2022/09/30 09:30:05;;;;;;;10.15;7.30;;;;;;;10.18;78.97;97706.47;4970893;28;20009;-91
2022/09/30 09:32:35;;;;;;;10.93;7.13;;;;;;;10.11;77.44;97695.22;4949331;28;20110;-91
2022/09/30 09:35:24;;;;;;;15.43;7.75;;;;;;;10.35;76.97;97702.41;4951419;28;20063;-89
2022/09/30 09:38:24;;;;;;;9.75;8.05;;;;;;;10.47;76.89;97699.16;4969742;28;20499;-91
2022/09/30 09:41:11;;;;;;;8.27;7.32;;;;;;;10.23;78.35;97698.84;4953774;28;20098;-92
2022/09/30 09:44:05;;;;;;;9.10;7.57;;;;;;;10.48;78.70;97711.25;4970003;28;20511;-91
2022/09/30 09:46:48;;;;;;;9.55;8.00;;;;;;;10.72;78.50;97705.28;4953598;28;20101;-95
2022/09/30 09:49:39;;;;;;;10.23;8.30;;;;;;;10.49;76.32;97700.53;4968564;28;20802;-91
2022/09/30 09:52:13;;;;;;;11.60;8.48;;;;;;;10.28;77.78;97711.31;4967361;28;20031;-92
2022/09/30 09:54:47;;;;;;;11.23;9.00;;;;;;;10.64;79.26;97714.19;4969490;28;20069;-91
2022/09/30 09:57:23;;;;;;;9.43;7.80;;;;;;;10.89;76.75;97706.41;4970588;28;20051;-92
2022/09/30 09:59:57;;;;;;;11.02;8.15;;;;;;;11.04;75.93;97710.56;4954997;28;20046;-95
2022/09/30 10:02:31;;;;;;;12.00;8.77;;;;;;;10.89;76.20;97701.16;4973405;28;20039;-94
2022/09/30 10:05:02;;;;;;;10.32;8.13;;;;;;;10.97;77.54;97694.84;4955107;28;20051;-93
2022/09/30 10:07:33;;;;;;;11.13;8.50;;;;;;;11.12;75.95;97707.69;4971215;28;20121;-92
2022/09/30 10:10:05;;;;;;;11.57;9.15;;;;;;;11.13;76.63;97717.16;4955440;28;20047;-92
2022/09/30 10:12:34;;;;;;;10.57;8.35;;;;;;;11.05;77.10;97712.19;4946089;28;20054;-93
2022/09/30 10:15:21;;;;;;;10.13;7.82;;;;;;;11.00;77.31;97699.69;4973354;28;20093;-95
2022/09/30 10:17:57;;;;;;;11.73;8.35;;;;;;;11.22;76.16;97705.41;4972297;28;20097;-94
2022/09/30 10:20:38;;;;;;;10.45;8.07;;;;;;;11.40;76.03;97694.97;4955033;28;20518;-94
2022/09/30 10:23:30;;;;;;;13.45;9.20;;;;;;;11.59;76.99;97700.25;4974248;28;20046;-96
2022/09/30 10:26:02;;;;;;;15.18;8.60;;;;;;;11.71;75.26;97701.97;4958607;28;20125;-96
2022/09/30 10:28:47;;;;;;;11.10;8.77;;;;;;;11.68;73.33;97699.75;4972458;28;20039;-93
2022/09/30 10:31:36;;;;;;;14.27;9.18;;;;;;;11.85;74.14;97686.09;4972921;28;20050;-92
2022/09/30 10:34:17;;;;;;;11.32;8.50;;;;;;;11.98;73.28;97694.66;4970901;28;20693;-94
2022/09/30 10:36:46;;;;;;;12.00;8.07;;;;;;;12.07;74.47;97678.59;4962422;28;20039;-96
2022/09/30 10:39:29;;;;;;;9.10;7.65;;;;;;;12.25;72.93;97673.34;4959121;28;20046;-96
2022/09/30 10:42:02;;;;;;;8.93;7.32;;;;;;;12.45;73.25;97692.31;4974004;28;20066;-94
2022/09/30 10:44:30;;;;;;;13.30;7.72;;;;;;;12.36;72.15;97688.38;4953529;28;20511;-95
2022/09/30 10:47:02;;;;;;;9.30;7.30;;;;;;;12.25;71.17;97697.00;4970553;28;20126;-93
2022/09/30 10:50:09;;;;;;;8.55;7.07;;;;;;;12.24;71.60;97693.56;4972155;28;20395;-92
2022/09/30 10:52:46;;;;;;;8.43;6.43;;;;;;;12.47;71.71;97687.63;4957172;28;20069;-93
2022/09/30 10:55:33;;;;;;;7.38;6.03;;;;;;;12.61;71.72;97680.38;4972459;28;20070;-94
2022/09/30 10:58:22;;;;;;;6.45;5.72;;;;;;;12.80;70.64;97681.13;4967668;28;20105;-94
2022/09/30 11:01:00;;;;;;;6.50;5.63;;;;;;;12.97;68.92;97687.38;4972776;28;20049;-93
2022/09/30 11:03:39;;;;;;;6.25;5.03;;;;;;;13.18;66.10;97682.59;4972484;28;20066;-92
2022/09/30 11:06:13;;;;;;;5.70;4.85;;;;;;;13.29;64.86;97687.13;4944538;29;20456;-95
2022/09/30 11:09:00;;;;;;;6.07;4.43;;;;;;;13.39;69.96;97687.38;4972867;28;20370;-92
2022/09/30 11:11:38;;;;;;;4.30;3.90;;;;;;;13.53;68.07;97678.22;4966678;28;20082;-93
2022/09/30 11:14:43;;;;;;;5.32;4.25;;;;;;;13.80;67.74;97693.59;4956198;29;20035;-95
2022/09/30 11:17:38;;;;;;;6.03;3.83;;;;;;;13.84;64.29;97700.00;4972273;28;20039;-94
2022/09/30 11:20:19;;;;;;;4.75;3.78;;;;;;;13.93;65.09;97696.00;4956498;28;20051;-93
2022/09/30 11:23:02;;;;;;;4.55;3.33;;;;;;;13.95;62.04;97701.03;4969474;28;20042;-91
2022/09/30 11:25:53;;;;;;;4.68;3.55;;;;;;;13.90;61.54;97696.44;4955108;28;20113;-95
2022/09/30 11:28:44;;;;;;;5.37;3.43;;;;;;;14.03;61.52;97701.47;4972545;28;20046;-95
2022/09/30 11:31:40;;;;;;;3.65;3.28;;;;;;;14.06;61.66;97687.03;4973570;28;20085;-94
2022/09/30 11:34:22;;;;;;;5.30;3.30;;;;;;;13.96;60.72;97690.25;4971712;28;20461;-94
2022/09/30 11:37:39;;;;;;;4.82;3.38;;;;;;;13.96;60.61;97695.50;4971825;28;20047;-96
2022/09/30 11:40:21;;;;;;;4.75;3.40;;;;;;;13.85;60.17;97683.97;4974474;28;20038;-96
2022/09/30 11:43:04;;;;;;;4.28;3.65;;;;;;;13.79;61.33;97678.78;4974995;28;20087;-95
2022/09/30 11:46:04;;;;;;;4.63;3.80;;;;;;;13.88;61.47;97687.97;4974568;28;20047;-95
2022/09/30 11:49:18;;;;;;;4.88;4.32;;;;;;;14.00;60.96;97691.41;4944775;28;20557;-94
2022/09/30 11:52:20;;;;;;;6.60;5.75;;;;;;;14.19;63.67;97677.03;4971680;28;20039;-93
2022/09/30 11:55:47;;;;;;;8.15;6.90;;;;;;;14.39;63.27;97678.47;4975643;28;20080;-93
2022/09/30 11:58:30;;;;;;;8.18;7.30;;;;;;;14.22;63.04;97682.88;4972938;28;20550;-92
2022/09/30 12:01:23;;;;;;;7.43;6.55;;;;;;;14.11;60.20;97669.50;4947341;28;20462;-93
2022/09/30 12:04:20;;;;;;;8.13;5.68;;;;;;;14.30;63.15;97679.88;4974115;28;20058;-92
2022/09/30 12:07:11;;;;;;;7.30;4.68;;;;;;;14.47;60.72;97677.34;4971158;28;20089;-91
2022/09/30 12:09:49;;;;;;;5.10;3.60;;;;;;;14.48;56.44;97669.19;4973167;28;20049;-90
2022/09/30 12:12:18;;;;;;;6.80;4.85;;;;;;;14.30;56.67;97682.50;4958302;28;20411;-93
2022/09/30 12:15:00;;;;;;;7.03;4.90;;;;;;;14.34;59.24;97688.94;4972286;28;20070;-93
2022/09/30 12:17:42;;;;;;;9.13;5.32;;;;;;;14.18;60.73;97682.53;4973370;28;20039;-92
2022/09/30 12:20:36;;;;;;;6.05;5.45;;;;;;;14.25;61.92;97690.31;4972948;28;20073;-91
2022/09/30 12:23:21;;;;;;;5.55;5.03;;;;;;;14.35;62.02;97698.44;4971914;28;20126;-92